Time;durP1;ratioP1;P1;durP2;ratioP2;P2;SDS_P1;SDS_P2;PMS_P1;PMS_P2;Temp;Humidity;BMP_temperature;BMP_pressure;BME280_temperature;BME280_humidity;BME280_pressure;Samples;Min_cycle;Max_cycle;Signal;HPM_P1;HPM_P2
2021/08/24 00:01:00;;;;;;;;;6.75;4.00;;;;;26.99;41.32;102448.06;5035172;28;45487;-66
2021/08/24 00:03:26;;;;;;;;;5.75;5.50;;;;;26.99;41.60;102441.91;5035429;28;46132;-65
2021/08/24 00:05:51;;;;;;;;;4.25;4.25;;;;;26.96;41.69;102433.22;5035058;28;45346;-66
2021/08/24 00:08:17;;;;;;;;;4.00;4.00;;;;;26.99;41.48;102433.88;5037408;28;45394;-66
2021/08/24 00:10:49;;;;;;;;;5.00;5.00;;;;;26.98;41.39;102441.09;5035097;28;45386;-66
2021/08/24 00:13:15;;;;;;;;;4.00;4.00;;;;;26.99;41.49;102433.88;5035017;28;46157;-65
2021/08/24 00:15:42;;;;;;;;;4.00;4.00;;;;;26.98;41.36;102433.06;5034933;28;45551;-66
2021/08/24 00:18:09;;;;;;;;;6.00;4.25;;;;;26.99;41.53;102440.06;5035077;28;45308;-66
2021/08/24 00:20:34;;;;;;;;;4.75;4.00;;;;;26.99;41.29;102440.06;5036617;28;45379;-65
2021/08/24 00:23:01;;;;;;;;;4.50;4.50;;;;;26.99;41.53;102425.88;5033679;28;45450;-65
2021/08/24 00:25:27;;;;;;;;;4.00;4.00;;;;;26.99;41.64;102426.72;5034513;28;45563;-65
2021/08/24 00:27:52;;;;;;;;;3.25;3.25;;;;;26.98;40.99;102424.22;5034813;28;45504;-65
2021/08/24 00:30:18;;;;;;;;;6.00;5.00;;;;;27.00;41.57;102427.53;5033519;28;45350;-66
2021/08/24 00:32:43;;;;;;;;;5.00;5.00;;;;;26.99;41.56;102426.72;5035482;28;45806;-66
2021/08/24 00:35:09;;;;;;;;;4.00;4.00;;;;;26.98;41.35;102419.72;5034626;28;45162;-66
2021/08/24 00:37:34;;;;;;;;;4.25;4.25;;;;;26.95;41.40;102422.75;5015513;28;45278;-66
2021/08/24 00:40:00;;;;;;;;;3.25;3.25;;;;;26.98;41.43;102430.41;5035056;28;45243;-66
2021/08/24 00:42:25;;;;;;;;;3.25;3.25;;;;;26.99;41.25;102429.38;5034566;28;45431;-65
2021/08/24 00:44:51;;;;;;;;;7.00;5.25;;;;;26.98;41.18;102430.41;5034665;28;45526;-66
2021/08/24 00:47:19;;;;;;;;;4.00;4.00;;;;;26.97;41.26;102426.06;5036338;28;45326;-65
2021/08/24 00:49:47;;;;;;;;;4.25;4.00;;;;;26.96;41.66;102435.06;5034523;28;45409;-66
2021/08/24 00:52:15;;;;;;;;;4.25;4.25;;;;;26.98;41.36;102443.75;5016537;28;46452;-66
2021/08/24 00:54:43;;;;;;;;;4.75;4.75;;;;;26.98;41.34;102440.25;5034211;28;45752;-66
2021/08/24 00:57:21;;;;;;;;;4.00;4.00;;;;;26.98;41.57;102434.91;5034612;28;45392;-66
2021/08/24 00:59:48;;;;;;;;;3.25;3.25;;;;;26.96;41.37;102427.88;5034074;28;45555;-66
2021/08/24 01:02:19;;;;;;;;;5.00;4.00;;;;;26.98;41.15;102426.91;5033917;28;45431;-66
2021/08/24 01:04:47;;;;;;;;;3.25;3.25;;;;;26.95;41.66;102430.75;5034091;28;45306;-66
2021/08/24 01:07:38;;;;;;;;;5.25;3.25;;;;;26.98;41.62;102426.91;5034226;28;45575;-66
2021/08/24 01:10:14;;;;;;;;;3.50;3.25;;;;;26.97;41.64;102439.41;5021362;28;45488;-66
2021/08/24 01:13:03;;;;;;;;;4.00;4.00;;;;;26.98;41.28;102435.75;5032704;28;45547;-66
2021/08/24 01:15:53;;;;;;;;;5.50;4.25;;;;;26.97;41.49;102436.75;5033421;28;45477;-66
2021/08/24 01:18:33;;;;;;;;;4.00;4.00;;;;;26.98;41.10;102433.06;5020401;28;45472;-65
2021/08/24 01:21:16;;;;;;;;;5.50;4.25;;;;;26.99;41.36;102436.56;5034031;28;45406;-65
2021/08/24 01:23:52;;;;;;;;;6.25;5.25;;;;;26.96;41.26;102427.06;5032327;28;46025;-65
2021/08/24 01:27:00;;;;;;;;;4.50;4.50;;;;;26.99;41.48;102432.06;5034479;28;45388;-66
2021/08/24 01:29:49;;;;;;;;;5.00;5.00;;;;;26.99;41.39;102428.53;5035534;28;45365;-66
2021/08/24 01:32:20;;;;;;;;;4.00;4.00;;;;;27.00;41.31;102425.72;4933248;28;45469;-66
2021/08/24 01:35:24;;;;;;;;;3.25;3.25;;;;;27.00;41.03;102433.72;4930399;28;45515;-66
2021/08/24 01:38:17;;;;;;;;;5.00;5.00;;;;;27.00;41.52;102430.22;4930495;28;45561;-66
2021/08/24 01:40:50;;;;;;;;;5.00;4.75;;;;;26.99;41.63;102426.72;4930584;28;45378;-66
2021/08/24 01:43:28;;;;;;;;;7.50;4.50;;;;;26.98;41.26;102409.03;4930596;28;45588;-66
2021/08/24 01:46:09;;;;;;;;;4.00;3.25;;;;;27.00;41.46;102423.03;4930076;28;46993;-66
2021/08/24 01:48:39;;;;;;;;;3.25;3.25;;;;;26.98;41.21;102425.06;4930713;28;45594;-65
2021/08/24 01:51:20;;;;;;;;;4.00;4.00;;;;;26.97;41.30;102431.41;4934833;28;45540;-66
2021/08/24 01:53:58;;;;;;;;;3.75;3.75;;;;;26.98;41.19;102426.91;4932583;28;45376;-65
2021/08/24 01:56:29;;;;;;;;;4.00;4.00;;;;;26.98;41.43;102430.41;4934354;28;45699;-66
2021/08/24 01:59:05;;;;;;;;;3.00;3.00;;;;;26.99;41.21;102428.53;4930224;28;45638;-66
2021/08/24 02:01:37;;;;;;;;;3.50;3.50;;;;;26.99;41.03;102428.53;4929964;28;45410;-65
2021/08/24 02:04:09;;;;;;;;;4.00;4.00;;;;;26.96;41.63;102413.69;4930435;28;45506;-66
2021/08/24 02:06:38;;;;;;;;;3.75;3.75;;;;;26.98;41.13;102422.38;4930595;28;47288;-66
2021/08/24 02:09:12;;;;;;;;;3.25;3.25;;;;;26.98;41.57;102426.91;4959340;28;45450;-65
2021/08/24 02:11:39;;;;;;;;;3.75;3.50;;;;;26.98;41.54;102417.06;5031688;28;45787;-65
2021/08/24 02:14:11;;;;;;;;;3.00;3.00;;;;;26.99;41.63;102423.19;5034116;28;45496;-66
2021/08/24 02:16:37;;;;;;;;;4.00;4.00;;;;;26.95;41.52;102423.56;5032960;28;46370;-65
2021/08/24 02:19:09;;;;;;;;;4.25;4.25;;;;;26.98;41.32;102421.56;5033098;28;45275;-65
2021/08/24 02:21:46;;;;;;;;;4.00;4.00;;;;;26.97;41.54;102412.69;5033492;28;45327;-65
2021/08/24 02:24:19;;;;;;;;;4.00;4.00;;;;;26.96;41.58;102411.03;5018784;28;45434;-66
2021/08/24 02:26:49;;;;;;;;;5.00;5.00;;;;;26.95;41.45;102409.38;5033771;28;46234;-65
2021/08/24 02:29:15;;;;;;;;;3.00;3.00;;;;;26.95;41.46;102412.06;5032789;28;45425;-66
2021/08/24 02:31:46;;;;;;;;;4.00;4.00;;;;;26.95;41.48;102415.56;5031705;28;45513;-65
2021/08/24 02:34:44;;;;;;;;;3.00;3.00;;;;;26.97;41.47;102410.03;5032924;28;45457;-66
2021/08/24 02:37:24;;;;;;;;;5.00;5.00;;;;;26.95;41.23;102410.22;5027475;28;47039;-66
2021/08/24 02:39:58;;;;;;;;;4.50;4.50;;;;;26.95;41.16;102407.56;5032906;28;45520;-66
2021/08/24 02:42:29;;;;;;;;;5.00;4.75;;;;;26.95;41.06;102399.53;5028990;28;45444;-65
2021/08/24 02:45:05;;;;;;;;;5.25;5.25;;;;;26.95;41.08;102396.88;5032493;28;45884;-66
2021/08/24 02:47:32;;;;;;;;;4.00;4.00;;;;;26.94;41.63;102389.84;5032232;28;46370;-66
2021/08/24 02:49:57;;;;;;;;;4.25;4.00;;;;;26.95;41.48;102396.88;5036558;28;45354;-65
2021/08/24 02:52:23;;;;;;;;;4.50;3.50;;;;;26.94;41.31;102397.03;5036335;28;45377;-66
2021/08/24 02:54:51;;;;;;;;;6.00;6.00;;;;;26.97;41.58;102399.34;5036213;28;45412;-66
2021/08/24 02:57:18;;;;;;;;;3.75;3.75;;;;;26.97;41.30;102402.03;5036413;28;46972;-66
2021/08/24 02:59:43;;;;;;;;;3.75;3.75;;;;;26.95;41.22;102399.53;5036675;28;46371;-66
2021/08/24 03:02:16;;;;;;;;;7.00;5.00;;;;;26.99;41.08;102402.66;5037684;28;45323;-65
2021/08/24 03:04:41;;;;;;;;;4.25;4.25;;;;;26.99;41.40;102400.00;5036158;28;45479;-65
2021/08/24 03:07:12;;;;;;;;;6.00;5.00;;;;;26.98;41.03;102393.00;5034239;28;46301;-65
2021/08/24 03:09:40;;;;;;;;;3.00;3.00;;;;;26.99;41.38;102394.66;5034343;28;45457;-66
2021/08/24 03:12:31;;;;;;;;;4.00;4.00;;;;;26.99;41.11;102400.00;5036254;28;45427;-66
2021/08/24 03:15:30;;;;;;;;;4.00;4.00;;;;;26.98;41.34;102406.38;5036204;28;45227;-66
2021/08/24 03:18:03;;;;;;;;;4.25;4.00;;;;;26.98;41.39;102405.53;5023604;28;45466;-66
2021/08/24 03:20:33;;;;;;;;;5.00;5.00;;;;;26.97;41.27;102404.69;5038077;28;45231;-66
2021/08/24 03:23:00;;;;;;;;;4.00;3.75;;;;;26.95;41.58;102394.19;5034802;28;45384;-65
2021/08/24 03:25:26;;;;;;;;;6.00;4.00;;;;;26.98;41.19;102400.19;5035763;28;45524;-65
2021/08/24 03:27:52;;;;;;;;;3.75;3.75;;;;;26.98;41.13;102397.50;5035129;28;45383;-66
2021/08/24 03:30:20;;;;;;;;;3.00;3.00;;;;;26.97;41.34;102394.00;5035934;28;45460;-66
2021/08/24 03:32:47;;;;;;;;;4.00;4.00;;;;;26.98;41.28;102394.84;5036392;28;45415;-66
2021/08/24 03:35:14;;;;;;;;;6.00;4.50;;;;;26.96;41.30;102401.19;5037555;28;45472;-66
2021/08/24 03:37:40;;;;;;;;;3.25;3.25;;;;;26.97;41.27;102399.34;5035394;28;47497;-65
2021/08/24 03:40:07;;;;;;;;;5.00;5.00;;;;;26.97;41.20;102396.69;5035434;28;45346;-65
2021/08/24 03:42:33;;;;;;;;;5.25;5.25;;;;;26.95;41.55;102394.19;5035530;28;45317;-66
2021/08/24 03:44:59;;;;;;;;;4.75;4.75;;;;;26.95;41.29;102393.34;5034849;28;45317;-65
2021/08/24 03:47:25;;;;;;;;;3.75;3.75;;;;;26.95;41.42;102393.34;5036789;28;45365;-65
2021/08/24 03:49:50;;;;;;;;;4.25;4.25;;;;;26.94;41.62;102384.50;5034119;28;45571;-66
2021/08/24 03:52:15;;;;;;;;;4.75;3.75;;;;;26.94;40.99;102381.84;5035448;28;45437;-65
2021/08/24 03:54:41;;;;;;;;;3.75;3.75;;;;;26.93;41.26;102379.34;5031196;28;45406;-66
2021/08/24 03:57:06;;;;;;;;;4.00;4.00;;;;;26.92;41.28;102380.34;5035102;28;45350;-65
2021/08/24 03:59:32;;;;;;;;;6.00;4.00;;;;;26.93;41.44;102380.16;5036809;28;45392;-65
2021/08/24 04:01:57;;;;;;;;;5.00;5.00;;;;;26.93;41.25;102380.16;5035277;28;45340;-65
2021/08/24 04:04:23;;;;;;;;;4.00;4.00;;;;;26.95;41.58;102385.34;5035120;28;45517;-65
2021/08/24 04:06:48;;;;;;;;;4.25;4.25;;;;;26.94;41.27;102386.34;5034983;28;46871;-66
2021/08/24 04:09:14;;;;;;;;;3.50;3.50;;;;;26.92;40.93;102383.88;5035368;28;45464;-66
2021/08/24 04:11:39;;;;;;;;;3.50;3.50;;;;;26.93;41.20;102382.84;5036290;28;45313;-66
2021/08/24 04:14:05;;;;;;;;;4.00;4.00;;;;;26.93;41.03;102385.50;5035914;28;45556;-66
2021/08/24 04:16:30;;;;;;;;;4.00;4.00;;;;;26.94;41.44;102381.84;5035074;28;46270;-66
2021/08/24 04:18:55;;;;;;;;;3.00;3.00;;;;;26.95;41.40;102380.00;5034917;28;45408;-66
2021/08/24 04:21:21;;;;;;;;;3.25;3.25;;;;;26.93;41.33;102382.03;5035422;28;45411;-66
2021/08/24 04:23:48;;;;;;;;;5.75;5.50;;;;;26.96;41.36;102379.81;5035819;28;45306;-65
2021/08/24 04:26:14;;;;;;;;;4.00;4.00;;;;;26.96;41.51;102392.34;5034279;28;47162;-66
2021/08/24 04:28:40;;;;;;;;;4.25;4.25;;;;;26.95;41.35;102394.19;5033351;28;45477;-65
2021/08/24 04:31:09;;;;;;;;;4.50;4.50;;;;;26.95;41.05;102396.88;5018309;28;45561;-66
2021/08/24 04:33:35;;;;;;;;;4.00;4.00;;;;;26.98;41.25;102400.19;5035090;28;45394;-65
2021/08/24 04:36:00;;;;;;;;;4.50;4.50;;;;;26.98;40.99;102397.50;5034624;28;46147;-65
2021/08/24 04:38:27;;;;;;;;;4.00;4.00;;;;;26.98;41.22;102400.19;5036952;28;45294;-65
2021/08/24 04:40:53;;;;;;;;;4.00;4.00;;;;;26.96;41.06;102403.00;5034252;28;45645;-65
2021/08/24 04:43:19;;;;;;;;;5.50;4.50;;;;;26.96;40.99;102408.34;5034704;28;45250;-65
2021/08/24 04:45:44;;;;;;;;;4.00;4.00;;;;;26.93;41.01;102406.06;5034532;28;46059;-66
2021/08/24 04:48:09;;;;;;;;;3.75;3.75;;;;;26.97;40.87;102410.03;5034651;28;45401;-66
2021/08/24 04:50:36;;;;;;;;;4.00;4.00;;;;;26.95;41.53;102406.72;5036568;28;45493;-66
2021/08/24 04:53:01;;;;;;;;;4.00;4.00;;;;;26.96;40.88;102409.19;5018220;28;45588;-65
2021/08/24 04:55:26;;;;;;;;;3.50;3.50;;;;;26.96;41.21;102414.53;5033263;28;45589;-65
2021/08/24 04:57:52;;;;;;;;;5.00;5.00;;;;;26.94;40.85;102419.22;5034275;28;45452;-66
2021/08/24 05:00:17;;;;;;;;;4.75;3.25;;;;;26.91;41.31;102411.56;5034545;28;45468;-66
2021/08/24 05:02:42;;;;;;;;;3.00;3.00;;;;;26.94;40.98;102410.38;5035277;28;45363;-65
2021/08/24 05:05:08;;;;;;;;;3.00;3.00;;;;;26.95;41.30;102420.06;5033960;28;46010;-66
2021/08/24 05:07:34;;;;;;;;;4.00;4.00;;;;;26.94;40.93;102421.91;5032628;28;45462;-66
2021/08/24 05:10:01;;;;;;;;;4.25;4.25;;;;;26.93;41.04;102430.91;5033582;28;45344;-65
2021/08/24 05:12:26;;;;;;;;;4.00;4.00;;;;;26.92;41.49;102429.25;5033872;28;45393;-65
2021/08/24 05:14:52;;;;;;;;;4.00;4.00;;;;;26.93;41.56;102435.44;5034084;28;45464;-66
2021/08/24 05:17:17;;;;;;;;;4.00;4.00;;;;;26.93;41.54;102430.91;5036200;28;45294;-66
2021/08/24 05:19:42;;;;;;;;;7.25;4.00;;;;;26.92;41.33;102433.75;5034332;28;45700;-65
2021/08/24 05:22:08;;;;;;;;;3.50;3.00;;;;;26.91;41.25;102427.59;5034096;28;45457;-66
2021/08/24 05:24:34;;;;;;;;;4.25;4.25;;;;;26.90;41.44;102420.59;5033755;28;45895;-66
2021/08/24 05:27:01;;;;;;;;;5.25;4.00;;;;;26.90;41.56;102420.59;5034073;28;45323;-65
2021/08/24 05:29:27;;;;;;;;;5.00;5.00;;;;;26.91;41.63;102424.06;5036088;28;45441;-65
2021/08/24 05:31:52;;;;;;;;;5.00;5.00;;;;;26.91;41.12;102435.59;5033982;28;45516;-66
2021/08/24 05:34:18;;;;;;;;;5.50;4.00;;;;;26.92;41.31;102429.25;5033451;28;47133;-66
2021/08/24 05:36:43;;;;;;;;;7.50;4.50;;;;;26.92;41.18;102428.41;5033650;28;45486;-66
2021/08/24 05:39:08;;;;;;;;;4.00;4.00;;;;;26.92;40.97;102431.94;5033801;28;45491;-66
2021/08/24 05:41:34;;;;;;;;;5.00;4.50;;;;;26.93;41.40;102433.56;5035690;28;45593;-66
2021/08/24 05:43:59;;;;;;;;;3.25;3.25;;;;;26.91;41.53;102427.59;5032457;28;46111;-66
2021/08/24 05:46:25;;;;;;;;;5.00;4.25;;;;;26.92;41.10;102418.59;5032239;28;45410;-65
2021/08/24 05:48:50;;;;;;;;;5.50;3.00;;;;;26.93;41.07;102422.09;5033593;28;45555;-66
2021/08/24 05:51:19;;;;;;;;;4.00;4.00;;;;;26.95;41.08;102422.75;5033873;28;45269;-66
2021/08/24 05:53:45;;;;;;;;;3.00;3.00;;;;;26.93;41.23;102427.44;5033608;28;46213;-65
2021/08/24 05:56:14;;;;;;;;;4.50;4.50;;;;;26.96;41.22;102432.41;5035000;28;45340;-66
2021/08/24 05:58:40;;;;;;;;;4.50;3.25;;;;;26.94;40.98;102431.75;5033476;28;45414;-65
2021/08/24 06:01:07;;;;;;;;;4.00;4.00;;;;;26.94;40.84;102426.41;5033473;28;45615;-65
2021/08/24 06:03:33;;;;;;;;;3.25;3.25;;;;;26.95;41.01;102430.75;5033474;28;46064;-66
2021/08/24 06:05:59;;;;;;;;;4.00;3.50;;;;;26.96;41.49;102441.25;5033408;28;45615;-66
2021/08/24 06:08:26;;;;;;;;;4.00;4.00;;;;;26.95;41.52;102433.41;5035236;28;45321;-65
2021/08/24 06:10:52;;;;;;;;;3.25;3.25;;;;;26.95;40.86;102433.41;5033229;28;45410;-65
2021/08/24 06:13:17;;;;;;;;;4.25;4.25;;;;;26.95;41.41;102428.91;5033053;28;46120;-66
2021/08/24 06:15:43;;;;;;;;;4.00;4.00;;;;;26.97;41.00;102431.41;5033158;28;45298;-66
2021/08/24 06:18:08;;;;;;;;;4.00;4.00;;;;;26.94;41.45;102427.25;5033375;28;45370;-66
2021/08/24 06:20:33;;;;;;;;;5.25;5.25;;;;;26.94;41.44;102427.25;5035812;28;45223;-65
2021/08/24 06:22:59;;;;;;;;;4.75;4.75;;;;;26.95;41.12;102428.06;5031198;28;45282;-65
2021/08/24 06:25:25;;;;;;;;;7.00;5.25;;;;;26.95;41.09;102433.41;5031697;28;45444;-65
2021/08/24 06:27:51;;;;;;;;;4.00;3.50;;;;;26.95;40.84;102430.75;5033357;28;45586;-66
2021/08/24 06:30:17;;;;;;;;;5.00;4.50;;;;;26.95;41.04;102422.75;5033342;28;45336;-66
2021/08/24 06:32:46;;;;;;;;;5.00;4.00;;;;;26.95;41.23;102436.94;5033996;28;46988;-66
2021/08/24 06:35:12;;;;;;;;;7.50;6.00;;;;;26.94;41.06;102435.25;5034410;28;45337;-65
2021/08/24 06:37:38;;;;;;;;;4.75;3.75;;;;;26.94;41.41;102435.25;5032844;28;45360;-66
2021/08/24 06:40:06;;;;;;;;;4.00;4.00;;;;;26.95;41.30;102436.09;5033105;28;45400;-66
2021/08/24 06:42:43;;;;;;;;;8.25;5.00;;;;;26.95;41.20;102436.09;5032920;28;46177;-66
2021/08/24 06:45:12;;;;;;;;;6.00;5.00;;;;;26.94;41.29;102427.25;5017947;28;45206;-66
2021/08/24 06:47:38;;;;;;;;;4.00;4.00;;;;;26.95;40.87;102425.41;5034182;28;45469;-66
2021/08/24 06:50:03;;;;;;;;;4.00;4.00;;;;;26.94;41.17;102426.41;5033321;28;45342;-66
2021/08/24 06:52:29;;;;;;;;;3.00;3.00;;;;;26.92;41.58;102428.41;5032857;28;46064;-65
2021/08/24 06:54:54;;;;;;;;;4.00;4.00;;;;;26.95;41.14;102428.91;5032467;28;45392;-65
2021/08/24 06:57:19;;;;;;;;;3.25;3.25;;;;;26.96;41.55;102432.41;5033030;28;45603;-66
2021/08/24 06:59:45;;;;;;;;;3.75;3.75;;;;;26.95;41.10;102426.25;5033736;28;45440;-66
2021/08/24 07:02:10;;;;;;;;;4.00;4.00;;;;;26.93;41.18;102416.75;5032278;28;46938;-66
2021/08/24 07:04:35;;;;;;;;;5.00;5.00;;;;;26.95;41.23;102420.91;5030825;28;45492;-65
2021/08/24 07:07:01;;;;;;;;;5.00;3.75;;;;;26.96;41.06;102433.22;5032754;28;45449;-66
2021/08/24 07:09:26;;;;;;;;;4.00;4.00;;;;;26.96;41.29;102432.41;5032886;28;45381;-66
2021/08/24 07:11:51;;;;;;;;;3.25;3.25;;;;;26.96;41.52;102435.06;5032593;28;46263;-66
2021/08/24 07:14:17;;;;;;;;;4.25;3.75;;;;;26.95;41.36;102434.25;5034621;28;45607;-66
2021/08/24 07:16:44;;;;;;;;;4.00;4.00;;;;;26.98;41.15;102434.91;5032536;28;45521;-65
2021/08/24 07:19:10;;;;;;;;;4.00;4.00;;;;;26.99;41.18;102440.06;5032361;28;45283;-66
2021/08/24 07:21:35;;;;;;;;;4.00;4.00;;;;;26.98;41.12;102430.41;5032427;28;46136;-65
2021/08/24 07:24:01;;;;;;;;;4.00;4.00;;;;;26.96;40.94;102443.06;5032444;28;45558;-65
2021/08/24 07:26:27;;;;;;;;;3.25;3.25;;;;;26.97;41.00;102442.09;5034543;28;45388;-66
2021/08/24 07:28:52;;;;;;;;;5.50;4.50;;;;;27.00;41.12;102440.91;5032397;28;45408;-65
2021/08/24 07:31:18;;;;;;;;;4.00;4.00;;;;;26.99;41.27;102440.06;5032286;28;46218;-66
2021/08/24 07:33:44;;;;;;;;;4.00;4.00;;;;;26.98;41.28;102440.25;5032402;28;45446;-66
2021/08/24 07:36:10;;;;;;;;;6.00;3.25;;;;;26.98;41.27;102438.41;5035864;28;45590;-66
2021/08/24 07:38:35;;;;;;;;;3.00;3.00;;;;;26.99;41.07;102440.06;5037877;28;45401;-65
2021/08/24 07:41:01;;;;;;;;;4.00;4.00;;;;;26.99;41.61;102437.38;5034075;28;47013;-66
2021/08/24 07:43:26;;;;;;;;;5.25;5.25;;;;;26.99;41.22;102434.72;5034265;28;45270;-66
2021/08/24 07:45:51;;;;;;;;;4.00;4.00;;;;;27.00;41.26;102444.41;5035633;28;45454;-65
2021/08/24 07:48:17;;;;;;;;;5.75;5.00;;;;;26.98;40.82;102449.09;5035444;28;45633;-66
2021/08/24 07:50:43;;;;;;;;;5.00;4.00;;;;;27.01;41.05;102445.25;5036481;28;45550;-66
2021/08/24 07:53:08;;;;;;;;;3.50;3.50;;;;;27.00;41.17;102446.25;5036312;28;45184;-66
2021/08/24 07:55:35;;;;;;;;;3.75;3.75;;;;;27.00;41.31;102447.09;5035449;28;45377;-66
2021/08/24 07:58:02;;;;;;;;;4.25;4.25;;;;;27.00;40.96;102446.25;5035492;28;45250;-66
2021/08/24 08:00:27;;;;;;;;;2.25;2.25;;;;;27.01;41.17;102439.91;5035284;28;46432;-66
2021/08/24 08:02:52;;;;;;;;;5.00;3.00;;;;;26.98;41.01;102435.75;5034802;28;45383;-66
2021/08/24 08:05:18;;;;;;;;;3.75;3.75;;;;;27.00;41.31;102448.91;5037522;28;45906;-65
2021/08/24 08:07:44;;;;;;;;;4.25;4.25;;;;;27.00;41.00;102435.56;5035291;28;45406;-66
2021/08/24 08:10:10;;;;;;;;;5.00;4.00;;;;;27.01;41.75;102443.38;5035163;28;45396;-66
2021/08/24 08:12:36;;;;;;;;;4.50;4.00;;;;;26.99;41.28;102437.38;5035167;28;45377;-66
2021/08/24 08:15:04;;;;;;;;;5.25;4.50;;;;;27.02;41.51;102441.56;5035175;28;45486;-66
2021/08/24 08:17:30;;;;;;;;;4.00;4.00;;;;;27.01;41.31;102448.72;5036794;28;45644;-66
2021/08/24 08:19:55;;;;;;;;;4.75;4.75;;;;;27.00;41.10;102439.06;5033363;28;46160;-65
2021/08/24 08:22:20;;;;;;;;;4.00;4.00;;;;;26.98;41.22;102437.59;5033679;28;46170;-66
2021/08/24 08:24:46;;;;;;;;;4.00;3.00;;;;;27.01;41.46;102435.38;5035171;28;45769;-66
2021/08/24 08:27:11;;;;;;;;;6.00;5.75;;;;;27.00;41.49;102444.41;5035123;28;45343;-66
2021/08/24 08:29:37;;;;;;;;;5.00;5.00;;;;;27.00;41.48;102448.91;5036421;28;45526;-66
2021/08/24 08:32:09;;;;;;;;;4.75;4.75;;;;;27.01;41.32;102434.56;5035253;28;45491;-66
2021/08/24 08:34:34;;;;;;;;;3.75;3.75;;;;;27.01;41.35;102442.56;5035154;28;45383;-66
2021/08/24 08:36:59;;;;;;;;;3.75;3.75;;;;;27.01;41.13;102442.56;5034708;28;45255;-66
2021/08/24 08:39:25;;;;;;;;;4.25;4.25;;;;;27.01;41.36;102439.91;5034773;28;45400;-66
2021/08/24 08:42:12;;;;;;;;;3.75;3.75;;;;;27.01;40.95;102442.56;5034754;28;45383;-66
2021/08/24 08:44:49;;;;;;;;;7.00;4.00;;;;;26.99;41.24;102439.22;5032877;28;45615;-66
2021/08/24 08:47:29;;;;;;;;;5.00;4.00;;;;;27.02;41.44;102441.56;5034226;28;45481;-66
2021/08/24 08:50:00;;;;;;;;;3.00;3.00;;;;;27.03;41.10;102451.25;5034399;28;46160;-65
2021/08/24 08:52:35;;;;;;;;;3.00;3.00;;;;;27.03;41.30;102429.88;5034317;28;45295;-65
2021/08/24 08:55:14;;;;;;;;;2.25;2.25;;;;;27.04;41.46;102437.69;5034405;28;45550;-65
2021/08/24 08:57:53;;;;;;;;;3.00;3.00;;;;;27.04;40.89;102437.69;5032927;28;45525;-66
2021/08/24 09:00:26;;;;;;;;;4.00;4.00;;;;;27.04;41.39;102435.03;5032730;28;45352;-66
2021/08/24 09:03:00;;;;;;;;;4.00;4.00;;;;;27.05;41.07;102426.00;5034286;28;45283;-66
2021/08/24 09:05:28;;;;;;;;;3.50;3.50;;;;;27.05;41.00;102428.69;5036576;28;45418;-66
2021/08/24 09:07:56;;;;;;;;;5.00;5.00;;;;;27.06;41.33;102432.19;5034313;28;45345;-66
2021/08/24 09:10:48;;;;;;;;;5.00;5.00;;;;;27.06;41.04;102448.22;5033974;28;45595;-65
2021/08/24 09:13:18;;;;;;;;;4.50;3.75;;;;;27.05;40.99;102439.38;5034045;28;45492;-66
2021/08/24 09:15:47;;;;;;;;;3.00;3.00;;;;;27.05;41.07;102431.34;5033819;28;45376;-65
2021/08/24 09:18:23;;;;;;;;;4.00;4.00;;;;;27.03;41.38;102433.38;5032369;28;45374;-65
2021/08/24 09:21:10;;;;;;;;;3.50;3.50;;;;;27.04;40.66;102434.19;5034275;28;45583;-65
2021/08/24 09:23:35;;;;;;;;;5.00;5.00;;;;;27.06;41.11;102432.19;5032325;28;45790;-66
2021/08/24 09:26:07;;;;;;;;;5.25;5.25;;;;;27.05;41.03;102420.69;5034564;28;45475;-66
2021/08/24 09:28:34;;;;;;;;;4.75;3.75;;;;;27.05;41.01;102418.00;5034135;28;45563;-66
2021/08/24 09:31:00;;;;;;;;;4.00;4.00;;;;;27.04;40.75;102421.66;5033430;28;45747;-66
2021/08/24 09:33:28;;;;;;;;;3.50;3.50;;;;;27.04;41.33;102424.34;5033916;28;45704;-65
2021/08/24 09:35:54;;;;;;;;;3.00;3.00;;;;;27.05;40.85;102420.69;5034071;28;45235;-66
2021/08/24 09:38:28;;;;;;;;;4.00;4.00;;;;;27.06;41.04;102422.31;5034309;28;45471;-66
2021/08/24 09:40:57;;;;;;;;;4.25;4.00;;;;;27.06;40.80;102427.66;5032240;28;45524;-65
2021/08/24 09:43:33;;;;;;;;;3.25;3.25;;;;;27.06;40.79;102421.50;5033569;28;45496;-66
2021/08/24 09:46:06;;;;;;;;;3.00;3.00;;;;;27.03;40.76;102409.34;5033513;28;45451;-65
2021/08/24 09:48:45;;;;;;;;;3.75;3.75;;;;;27.05;40.80;102403.81;5033754;28;45298;-66
2021/08/24 09:51:26;;;;;;;;;2.75;2.75;;;;;27.05;41.07;102419.84;5017494;28;45536;-66
2021/08/24 09:54:00;;;;;;;;;4.00;4.00;;;;;27.05;40.52;102412.66;5033434;28;45349;-66
2021/08/24 09:56:33;;;;;;;;;4.75;3.50;;;;;27.02;40.72;102407.66;5035011;28;45267;-66
2021/08/24 09:58:59;;;;;;;;;4.75;4.75;;;;;27.05;41.07;102418.00;5033185;28;45260;-65
2021/08/24 10:01:24;;;;;;;;;3.50;3.50;;;;;27.01;40.98;102397.16;5032654;28;46318;-66
2021/08/24 10:04:08;;;;;;;;;5.75;4.00;;;;;27.04;40.68;102416.31;5033374;28;45511;-66
2021/08/24 10:06:38;;;;;;;;;2.75;2.75;;;;;27.06;40.66;102408.16;5033723;28;45555;-66
2021/08/24 10:09:15;;;;;;;;;4.00;4.00;;;;;27.06;40.31;102403.63;5016771;28;45588;-65
2021/08/24 10:11:41;;;;;;;;;2.75;2.75;;;;;27.03;40.62;102408.50;5031738;28;47497;-66
2021/08/24 10:14:20;;;;;;;;;2.50;2.00;;;;;27.07;40.60;102402.63;5033823;28;45296;-66
2021/08/24 10:16:48;;;;;;;;;2.50;2.50;;;;;27.07;40.59;102404.47;5031296;28;45250;-66
2021/08/24 10:19:25;;;;;;;;;6.25;4.00;;;;;27.08;40.46;102403.47;5031644;28;45798;-66
2021/08/24 10:21:50;;;;;;;;;2.50;2.50;;;;;27.08;40.53;102403.47;5033240;28;45443;-66
2021/08/24 10:24:23;;;;;;;;;5.00;3.00;;;;;27.09;40.37;102414.97;5033099;28;45426;-66
2021/08/24 10:26:54;;;;;;;;;4.00;4.00;;;;;27.05;40.01;102401.97;5033585;28;45334;-66
2021/08/24 10:29:26;;;;;;;;;4.00;4.00;;;;;27.06;40.58;102392.94;5033350;28;45262;-66
2021/08/24 10:31:56;;;;;;;;;5.50;3.00;;;;;27.08;40.29;102400.78;5032920;28;46304;-65
2021/08/24 10:34:31;;;;;;;;;3.00;3.00;;;;;27.07;40.37;102405.28;5032800;28;45441;-66
2021/08/24 10:37:15;;;;;;;;;5.00;4.00;;;;;27.08;40.52;102379.41;5032973;28;45401;-66
2021/08/24 10:39:40;;;;;;;;;4.00;4.00;;;;;27.07;40.06;102388.44;5033027;28;45448;-66
2021/08/24 10:42:20;;;;;;;;;3.00;3.00;;;;;27.06;40.45;102402.81;5032528;28;45511;-66
2021/08/24 10:44:53;;;;;;;;;4.00;4.00;;;;;27.06;40.07;102400.94;5033722;28;46052;-66
2021/08/24 10:47:33;;;;;;;;;3.50;3.50;;;;;27.06;39.92;102392.13;5033371;28;45326;-66
2021/08/24 10:50:00;;;;;;;;;2.50;2.25;;;;;27.07;40.28;102401.78;5032838;28;45705;-65
2021/08/24 10:52:44;;;;;;;;;3.25;2.75;;;;;27.05;40.21;102388.63;5032619;28;46060;-66
2021/08/24 10:55:14;;;;;;;;;3.25;3.25;;;;;27.06;40.33;102397.47;5030902;28;45220;-66
2021/08/24 10:57:44;;;;;;;;;3.75;3.75;;;;;27.05;39.78;102396.63;5031160;28;45337;-66
2021/08/24 11:00:32;;;;;;;;;4.00;4.00;;;;;27.06;40.32;102392.13;5032771;28;45305;-66
2021/08/24 11:03:28;;;;;;;;;3.00;3.00;;;;;27.06;40.22;102379.59;5032464;28;46234;-65
2021/08/24 11:06:12;;;;;;;;;2.75;2.75;;;;;27.06;40.17;102378.78;5031414;28;45397;-66
2021/08/24 11:09:07;;;;;;;;;3.00;3.00;;;;;27.06;39.92;102400.16;5032805;28;45294;-68
2021/08/24 11:11:59;;;;;;;;;2.00;2.00;;;;;27.04;39.71;102384.28;5028005;28;45379;-66
2021/08/24 11:14:42;;;;;;;;;4.00;3.25;;;;;27.05;40.13;102385.94;5037144;28;46052;-68
2021/08/24 11:17:32;;;;;;;;;2.75;2.50;;;;;27.05;39.82;102377.09;5036909;28;45298;-66
2021/08/24 11:20:36;;;;;;;;;2.00;2.00;;;;;27.05;40.03;102371.75;5036163;28;45363;-66
2021/08/24 11:23:25;;;;;;;;;2.75;2.75;;;;;27.04;39.60;102378.94;5034515;28;45556;-66
2021/08/24 11:26:00;;;;;;;;;3.50;3.25;;;;;27.03;39.94;102371.09;5035310;28;47550;-66
2021/08/24 11:28:41;;;;;;;;;2.25;2.25;;;;;27.05;40.02;102393.97;5035521;28;45307;-65
2021/08/24 11:31:14;;;;;;;;;4.00;2.00;;;;;27.04;39.99;102394.97;5035832;28;45508;-65
2021/08/24 11:33:57;;;;;;;;;3.75;3.00;;;;;27.05;39.52;102377.94;5034215;28;45624;-66
2021/08/24 11:36:43;;;;;;;;;2.25;2.25;;;;;27.04;39.58;102381.59;5034181;28;45389;-66
2021/08/24 11:39:17;;;;;;;;;3.25;2.50;;;;;27.05;39.66;102364.59;5020576;28;45299;-66